Kedves Pilóták, Oktatók, Növendékek!

Az alábbi menüpontban szeretnénk összefoglalni néhány fontos és hasznos információt, linket, amely segíthet a repülések megtervezésében.

Ha bármilyen javaslatod van a tartalommal kapcsolatban, kérlek Ez az e-mail-cím a szpemrobotok elleni védelem alatt áll. Megtekintéséhez engedélyeznie kell a JavaScript használatát.meg nekünk.

 

Jó leszállást!

Repüléssel kapcsolatos hírek

2020. június 02.

IHO.hu - - Repülés RSS

Felhőkép 

Felhőkép

Széltérkép

Széltérkép

Győr-Pér Repülőtér

Élő webkamera kép

 Nagyobb kép

Győr-Pér Repülőtér

[Source: ADDS]
METAR
LHPR 020645Z AUTO 33015KT 290V360 CAVOK 17/06 Q1014 NOSIG =
LHPR 020515Z 0206/0215 30006KT CAVOK BECMG 0208/0209 34016KT PROB40 TEMPO 0211/0215 SCT040TCU
TAF
LHPR 020515Z 0206/0215 30006KT CAVOK BECMG 0208/0209 34016KT PROB40 TEMPO 0211/0215 SCT040TCU =
SR / SS: 02:54 / 18:39 UTC (Napkelte / Napnyugta 2020-06-02)

Kapcsolat

Telephely:     9099 Pér, Repülõtér

Klubhelyiség: 9021 Gyõr, Városház tér 3.

E-mail: info@aeroclub-gyor.hu

Telefon: 06-20-777-9106

Adószám: 19113832-2-08

JSN Metro template designed by JoomlaShine.com